Time;durP1;ratioP1;P1;durP2;ratioP2;P2;SDS_P1;SDS_P2;PMS_P1;PMS_P2;Temp;Humidity;BMP_temperature;BMP_pressure;BME280_temperature;BME280_humidity;BME280_pressure;Samples;Min_cycle;Max_cycle;Signal;HPM_P1;HPM_P2
2023/02/06 00:01:34;;;;;;;19.95;3.13;;;;;;;2.06;100.00;104160.63;5071017;28;20049;-52
2023/02/06 00:04:04;;;;;;;27.73;4.60;;;;;;;2.05;100.00;104164.09;5070761;28;20814;-52
2023/02/06 00:06:32;;;;;;;33.20;4.47;;;;;;;2.05;100.00;104151.09;5074213;28;20498;-51
2023/02/06 00:09:00;;;;;;;26.27;4.15;;;;;;;2.02;100.00;104144.09;5073803;28;20045;-52
2023/02/06 00:11:29;;;;;;;20.77;3.90;;;;;;;1.97;100.00;104145.72;5055842;28;20055;-52
2023/02/06 00:13:57;;;;;;;30.08;4.25;;;;;;;1.97;100.00;104148.31;5073744;28;20068;-53
2023/02/06 00:16:27;;;;;;;25.73;4.55;;;;;;;2.01;100.00;104147.53;5073509;28;20049;-49
2023/02/06 00:18:58;;;;;;;27.60;3.88;;;;;;;2.01;100.00;104150.13;5073702;28;20040;-52
2023/02/06 00:21:29;;;;;;;20.20;3.47;;;;;;;1.99;100.00;104144.00;5055613;28;20514;-53
2023/02/06 00:24:00;;;;;;;22.92;3.90;;;;;;;1.92;100.00;104149.91;5073601;28;20072;-50
2023/02/06 00:26:30;;;;;;;30.13;4.47;;;;;;;1.93;100.00;104139.56;5073487;28;20040;-52
2023/02/06 00:28:58;;;;;;;29.02;4.43;;;;;;;1.89;100.00;104139.47;5073738;28;20044;-53
2023/02/06 00:31:26;;;;;;;27.73;3.20;;;;;;;1.85;100.00;104136.81;5072394;28;20114;-53
2023/02/06 00:33:54;;;;;;;21.45;3.35;;;;;;;1.83;100.00;104135.88;5070060;28;20123;-51
2023/02/06 00:36:22;;;;;;;26.05;4.20;;;;;;;1.80;100.00;104133.22;5069592;28;20147;-53
2023/02/06 00:38:52;;;;;;;22.20;3.40;;;;;;;1.75;100.00;104137.41;5069720;28;20056;-52
2023/02/06 00:41:20;;;;;;;24.80;3.75;;;;;;;1.73;100.00;104131.28;5072701;28;20059;-50
2023/02/06 00:43:48;;;;;;;25.27;4.13;;;;;;;1.67;100.00;104134.59;5073109;28;20123;-50
2023/02/06 00:46:16;;;;;;;18.77;2.97;;;;;;;1.67;100.00;104128.56;5071751;28;20415;-51
2023/02/06 00:48:44;;;;;;;25.08;3.53;;;;;;;1.63;100.00;104122.41;5051725;28;20059;-48
2023/02/06 00:51:12;;;;;;;26.88;4.13;;;;;;;1.63;100.00;104118.94;5072127;28;20044;-51
2023/02/06 00:53:40;;;;;;;20.13;4.70;;;;;;;1.62;100.00;104132.75;5069806;28;20050;-52
2023/02/06 00:56:10;;;;;;;29.25;4.78;;;;;;;1.59;100.00;104128.34;5069032;28;20430;-50
2023/02/06 00:58:38;;;;;;;21.80;3.58;;;;;;;1.57;100.00;104130.03;5072804;28;20553;-47
2023/02/06 01:01:06;;;;;;;30.30;3.83;;;;;;;1.54;100.00;104123.88;5071327;28;20519;-49
2023/02/06 01:03:34;;;;;;;24.55;4.20;;;;;;;1.56;100.00;104132.59;5069673;28;20168;-49
2023/02/06 01:06:02;;;;;;;23.05;3.70;;;;;;;1.60;100.00;104134.44;5069649;28;20067;-54
2023/02/06 01:08:30;;;;;;;24.60;3.45;;;;;;;1.57;100.00;104124.84;5051285;28;20563;-54
2023/02/06 01:10:58;;;;;;;22.80;3.28;;;;;;;1.58;100.00;104136.09;5068586;28;20724;-62
2023/02/06 01:13:28;;;;;;;24.13;3.60;;;;;;;1.56;100.00;104137.78;5051119;28;20135;-62
2023/02/06 01:15:56;;;;;;;29.05;4.50;;;;;;;1.50;100.00;104133.31;5068732;28;20469;-62
2023/02/06 01:18:24;;;;;;;23.50;4.38;;;;;;;1.49;100.00;104127.25;5069478;28;20048;-62
2023/02/06 01:20:55;;;;;;;23.95;4.13;;;;;;;1.44;100.00;104133.16;5068591;28;20114;-62
2023/02/06 01:23:24;;;;;;;21.23;3.33;;;;;;;1.40;100.00;104131.31;5069469;28;20076;-62
2023/02/06 01:25:53;;;;;;;28.08;3.78;;;;;;;1.37;100.00;104133.84;5068067;28;20514;-62
2023/02/06 01:28:21;;;;;;;19.08;3.30;;;;;;;1.43;100.00;104140.06;5069082;28;20090;-61
2023/02/06 01:30:50;;;;;;;22.05;3.20;;;;;;;1.36;100.00;104151.09;5071185;28;20406;-62
2023/02/06 01:33:21;;;;;;;22.05;3.75;;;;;;;1.30;100.00;104149.22;5072491;28;20057;-62
2023/02/06 01:35:55;;;;;;;23.10;3.85;;;;;;;1.27;100.00;104148.25;5049898;28;20549;-62
2023/02/06 01:38:23;;;;;;;23.90;3.40;;;;;;;1.21;100.00;104153.31;5049535;28;20048;-62
2023/02/06 01:40:56;;;;;;;20.08;3.85;;;;;;;1.23;100.00;104139.53;5047600;28;20136;-61
2023/02/06 01:43:28;;;;;;;24.63;3.20;;;;;;;1.21;100.00;104137.75;5049302;28;20064;-62
2023/02/06 01:45:57;;;;;;;23.17;2.80;;;;;;;1.15;100.00;104135.88;5051771;28;20044;-62
2023/02/06 01:48:32;;;;;;;27.38;3.40;;;;;;;1.14;100.00;104134.97;5050710;28;20099;-62
2023/02/06 01:51:03;;;;;;;17.23;3.25;;;;;;;1.14;100.00;104134.09;5048805;28;20052;-62
2023/02/06 01:53:32;;;;;;;27.98;3.60;;;;;;;1.14;100.00;104127.19;5048572;28;20127;-62
2023/02/06 01:56:03;;;;;;;22.65;3.10;;;;;;;1.16;100.00;104122.94;5048027;28;20868;-62
2023/02/06 01:58:35;;;;;;;17.92;3.42;;;;;;;1.17;100.00;104129.88;5048837;28;20059;-62
2023/02/06 02:01:06;;;;;;;20.88;3.13;;;;;;;1.16;100.00;104137.63;5050022;28;20427;-62
2023/02/06 02:03:40;;;;;;;28.73;3.95;;;;;;;1.19;100.00;104153.25;5052464;28;20049;-62
2023/02/06 02:06:10;;;;;;;27.65;4.18;;;;;;;1.15;100.00;104160.06;5052077;28;20049;-62
2023/02/06 02:08:41;;;;;;;20.80;3.47;;;;;;;1.15;100.00;104151.44;5049204;28;20124;-62
2023/02/06 02:11:14;;;;;;;20.90;3.25;;;;;;;1.14;100.00;104147.94;5047968;28;20412;-62
2023/02/06 02:13:43;;;;;;;24.42;3.47;;;;;;;1.13;100.00;104141.03;5049013;28;20057;-62
2023/02/06 02:16:23;;;;;;;23.63;3.28;;;;;;;1.14;100.00;104131.50;5048358;28;20399;-62
2023/02/06 02:19:05;;;;;;;23.25;3.45;;;;;;;1.15;100.00;104133.28;5048726;28;20049;-62
2023/02/06 02:22:00;;;;;;;16.02;3.58;;;;;;;1.18;100.00;104135.94;5051808;28;20059;-62
2023/02/06 02:24:47;;;;;;;16.35;3.38;;;;;;;1.18;100.00;104135.94;5049792;28;20495;-62
2023/02/06 02:27:43;;;;;;;19.48;3.17;;;;;;;1.17;100.00;104132.47;5047896;28;20051;-62
2023/02/06 02:30:39;;;;;;;18.42;3.67;;;;;;;1.16;100.00;104138.50;5052014;28;20049;-52
2023/02/06 02:33:44;;;;;;;16.73;2.88;;;;;;;1.16;100.00;104148.88;5051580;28;20049;-52
2023/02/06 02:36:20;;;;;;;19.73;4.22;;;;;;;1.18;100.00;104138.53;5031253;28;20584;-50
2023/02/06 02:38:59;;;;;;;21.70;3.55;;;;;;;1.20;100.00;104138.56;5031381;28;20049;-53
2023/02/06 02:41:34;;;;;;;18.92;2.60;;;;;;;1.25;100.00;104131.81;5032000;28;20045;-50
2023/02/06 02:44:07;;;;;;;21.17;3.33;;;;;;;1.26;100.00;104126.66;5031371;28;20041;-51
2023/02/06 02:46:39;;;;;;;18.20;2.90;;;;;;;1.30;100.00;104119.84;5031432;28;20115;-51
2023/02/06 02:49:12;;;;;;;19.35;3.50;;;;;;;1.27;100.00;104118.03;5031930;28;20048;-52
2023/02/06 02:51:43;;;;;;;19.83;3.25;;;;;;;1.27;100.00;104114.56;5030173;28;20504;-51
2023/02/06 02:54:11;;;;;;;23.85;2.80;;;;;;;1.29;100.00;104123.25;5028104;28;20099;-51
2023/02/06 02:56:39;;;;;;;21.73;5.65;;;;;;;1.33;100.00;104125.97;5030981;28;20124;-52
2023/02/06 02:59:12;;;;;;;21.05;2.80;;;;;;;1.33;100.00;104113.00;5031554;28;20491;-53
2023/02/06 03:01:45;;;;;;;17.48;2.65;;;;;;;1.36;100.00;104119.97;5035118;28;20037;-49
2023/02/06 03:04:22;;;;;;;26.15;3.95;;;;;;;1.36;100.00;104107.00;5035341;28;20095;-52
2023/02/06 03:07:08;;;;;;;17.23;2.92;;;;;;;1.38;100.00;104110.53;5035244;28;20064;-50
2023/02/06 03:09:49;;;;;;;19.65;3.10;;;;;;;1.38;100.00;104109.63;5035124;28;20076;-50
2023/02/06 03:12:25;;;;;;;13.52;2.80;;;;;;;1.38;100.00;104113.13;5035597;28;20052;-50
2023/02/06 03:14:58;;;;;;;19.00;3.00;;;;;;;1.40;100.00;104115.75;5034968;28;20053;-49
2023/02/06 03:17:33;;;;;;;23.75;3.00;;;;;;;1.39;100.00;104114.00;5035053;28;20049;-50
2023/02/06 03:20:04;;;;;;;18.73;3.33;;;;;;;1.41;100.00;104110.59;5031585;28;20038;-52
2023/02/06 03:22:35;;;;;;;14.30;3.15;;;;;;;1.40;100.00;104114.03;5032275;28;20080;-49
2023/02/06 03:25:11;;;;;;;20.73;2.95;;;;;;;1.40;100.00;104103.66;5034874;28;20388;-51
2023/02/06 03:27:42;;;;;;;14.82;2.70;;;;;;;1.42;100.00;104094.22;5034513;28;20054;-49
2023/02/06 03:30:13;;;;;;;15.88;3.10;;;;;;;1.42;100.00;104096.81;5034604;28;20095;-50
2023/02/06 03:32:45;;;;;;;23.27;3.13;;;;;;;1.45;100.00;104101.19;5034688;28;20049;-52
2023/02/06 03:35:17;;;;;;;18.60;2.85;;;;;;;1.44;100.00;104096.84;5062119;28;20500;-51
2023/02/06 03:37:49;;;;;;;17.98;3.13;;;;;;;1.43;100.00;104106.34;5074505;28;20076;-50
2023/02/06 03:40:18;;;;;;;18.40;3.70;;;;;;;1.45;100.00;104114.16;5074578;28;20045;-62
2023/02/06 03:42:51;;;;;;;15.43;2.70;;;;;;;1.45;100.00;104109.84;5074403;28;20114;-62
2023/02/06 03:45:25;;;;;;;19.55;2.95;;;;;;;1.46;100.00;104111.63;5074443;28;20491;-62
2023/02/06 03:47:58;;;;;;;17.58;2.67;;;;;;;1.46;100.00;104110.72;5074181;28;20543;-62
2023/02/06 03:50:28;;;;;;;23.98;2.80;;;;;;;1.48;100.00;104101.28;5074261;28;20051;-62
2023/02/06 03:53:00;;;;;;;23.35;3.70;;;;;;;1.45;100.00;104096.00;5071724;28;20131;-53
2023/02/06 03:55:28;;;;;;;20.40;3.65;;;;;;;1.48;100.00;104094.34;5070004;28;20037;-52
2023/02/06 03:58:00;;;;;;;18.88;2.47;;;;;;;1.46;100.00;104101.22;5073529;28;20072;-52
2023/02/06 04:00:29;;;;;;;;;;;;;;;1.48;100.00;104104.72;5074723;28;20115;-52
2023/02/06 04:02:59;;;;;;;12.52;2.80;;;;;;;1.43;100.00;104111.53;5074274;28;20014;-54
2023/02/06 04:05:27;;;;;;;16.67;2.90;;;;;;;1.47;100.00;104113.38;5074059;28;20488;-53
2023/02/06 04:07:57;;;;;;;19.52;2.92;;;;;;;1.40;100.00;104107.97;5073673;28;20044;-51
2023/02/06 04:10:25;;;;;;;17.30;3.08;;;;;;;1.37;100.00;104115.69;5072210;28;20438;-49
2023/02/06 04:12:53;;;;;;;17.58;2.80;;;;;;;1.33;100.00;104119.91;5069502;28;20066;-51
2023/02/06 04:15:21;;;;;;;15.57;2.53;;;;;;;1.25;100.00;104124.03;5072326;28;20534;-50
2023/02/06 04:17:51;;;;;;;19.45;3.08;;;;;;;1.24;100.00;104124.84;5071013;28;20127;-53
2023/02/06 04:20:29;;;;;;;17.15;2.65;;;;;;;1.16;100.00;104117.75;5069975;28;20131;-51
2023/02/06 04:22:59;;;;;;;16.73;3.33;;;;;;;1.20;100.00;104112.66;5071654;28;20123;-49
2023/02/06 04:25:27;;;;;;;16.15;2.72;;;;;;;1.17;100.00;104110.84;5073919;28;20044;-50
2023/02/06 04:27:55;;;;;;;15.23;2.42;;;;;;;1.09;100.00;104108.06;5073537;28;20048;-50
2023/02/06 04:30:23;;;;;;;17.98;2.72;;;;;;;1.11;100.00;104108.97;5073501;28;20056;-52
2023/02/06 04:32:51;;;;;;;14.38;3.05;;;;;;;1.04;100.00;104099.28;5073023;28;20094;-51
2023/02/06 04:35:20;;;;;;;16.65;3.28;;;;;;;1.05;100.00;104107.94;5072936;28;20090;-48
2023/02/06 04:37:48;;;;;;;17.25;3.30;;;;;;;1.09;100.00;104108.06;5071816;28;20059;-50
2023/02/06 04:40:18;;;;;;;16.35;2.20;;;;;;;1.02;100.00;104098.34;5069019;28;20127;-52
2023/02/06 04:42:46;;;;;;;11.48;2.88;;;;;;;0.93;100.00;104095.53;5071118;28;20056;-50
2023/02/06 04:45:14;;;;;;;13.30;2.20;;;;;;;0.95;100.00;104101.63;5071583;28;20045;-49
2023/02/06 04:47:42;;;;;;;14.68;2.35;;;;;;;0.94;100.00;104100.75;5072840;28;20495;-52
2023/02/06 04:50:11;;;;;;;17.35;2.40;;;;;;;0.90;100.00;104103.19;5073179;28;20052;-53
2023/02/06 04:52:39;;;;;;;14.63;2.40;;;;;;;0.90;100.00;104103.19;5072857;28;20048;-53
2023/02/06 04:55:07;;;;;;;18.00;2.75;;;;;;;0.85;100.00;104108.28;5072420;28;20048;-51
2023/02/06 04:57:37;;;;;;;14.73;2.33;;;;;;;0.82;100.00;104106.47;5069268;28;20402;-52
2023/02/06 05:00:08;;;;;;;14.93;2.55;;;;;;;0.77;100.00;104117.53;5069996;28;20051;-52
2023/02/06 05:02:38;;;;;;;17.65;2.72;;;;;;;0.76;100.00;104114.06;5071976;28;20045;-52
2023/02/06 05:05:08;;;;;;;17.00;2.65;;;;;;;0.73;100.00;104124.34;5069779;28;20054;-52
2023/02/06 05:07:37;;;;;;;15.57;2.90;;;;;;;0.67;100.00;104125.03;5071710;28;20044;-52
2023/02/06 05:10:08;;;;;;;9.63;2.17;;;;;;;0.63;100.00;104124.94;5069913;28;20075;-51
2023/02/06 05:12:38;;;;;;;17.20;2.97;;;;;;;0.59;100.00;104123.09;5068110;28;20346;-53
2023/02/06 05:15:09;;;;;;;12.75;3.05;;;;;;;0.50;100.00;104103.84;5069604;28;20067;-49
2023/02/06 05:17:38;;;;;;;10.05;2.35;;;;;;;0.50;100.00;104109.03;5069872;28;20051;-51
2023/02/06 05:20:07;;;;;;;13.40;2.53;;;;;;;0.48;100.00;104115.88;5072565;28;20083;-51
2023/02/06 05:22:35;;;;;;;17.02;2.17;;;;;;;0.53;100.00;104118.56;5069568;28;20032;-49
2023/02/06 05:25:03;;;;;;;12.85;2.42;;;;;;;0.49;100.00;104127.09;5069272;28;20123;-52
2023/02/06 05:27:31;;;;;;;16.10;2.88;;;;;;;0.52;100.00;104131.47;5071210;28;20080;-54
2023/02/06 05:30:01;;;;;;;14.95;2.40;;;;;;;0.45;100.00;104136.50;5069288;28;20086;-49
2023/02/06 05:32:29;;;;;;;17.98;3.80;;;;;;;0.45;100.00;104139.09;5070588;28;20049;-49
2023/02/06 05:34:57;;;;;;;21.77;3.30;;;;;;;0.39;100.00;104136.31;5072181;28;20114;-51
2023/02/06 05:37:25;;;;;;;14.82;2.40;;;;;;;0.31;100.00;104140.38;5072198;28;20048;-52
2023/02/06 05:39:53;;;;;;;9.35;2.38;;;;;;;0.25;100.00;104145.38;5072217;28;20496;-50
2023/02/06 05:42:21;;;;;;;10.45;2.40;;;;;;;0.30;100.00;104143.78;5072275;28;20079;-48
2023/02/06 05:44:49;;;;;;;16.40;2.70;;;;;;;0.33;100.00;104146.50;5052674;28;20052;-51
2023/02/06 05:47:19;;;;;;;12.98;2.28;;;;;;;0.32;100.00;104142.13;5068604;28;20123;-48
2023/02/06 05:49:47;;;;;;;23.20;2.78;;;;;;;0.27;100.00;104136.81;5071593;28;20110;-51
2023/02/06 05:52:16;;;;;;;13.85;2.05;;;;;;;0.29;100.00;104127.38;5071686;28;20046;-51
2023/02/06 05:54:44;;;;;;;14.27;2.67;;;;;;;0.28;100.00;104119.56;5068317;28;20479;-50
2023/02/06 05:57:12;;;;;;;14.60;2.30;;;;;;;0.29;100.00;104116.16;5069023;28;20041;-50
2023/02/06 05:59:40;;;;;;;13.60;2.20;;;;;;;0.29;100.00;104123.94;5069561;28;20398;-48
2023/02/06 06:02:09;;;;;;;17.40;2.67;;;;;;;0.31;100.00;104127.41;5068928;28;20491;-49
2023/02/06 06:04:38;;;;;;;12.77;2.17;;;;;;;0.27;100.00;104117.81;5072097;28;20545;-49
2023/02/06 06:07:06;;;;;;;14.88;2.65;;;;;;;0.24;100.00;104120.31;5072031;28;20051;-52
2023/02/06 06:09:34;;;;;;;18.13;2.72;;;;;;;0.30;100.00;104123.06;5072035;28;20040;-49
2023/02/06 06:12:02;;;;;;;13.43;2.03;;;;;;;0.30;100.00;104117.88;5072064;28;20455;-49
2023/02/06 06:14:30;;;;;;;14.75;2.60;;;;;;;0.26;100.00;104123.81;5071892;28;20040;-62
2023/02/06 06:16:59;;;;;;;13.68;3.00;;;;;;;0.31;100.00;104124.84;5071798;28;20052;-62
2023/02/06 06:19:27;;;;;;;11.00;2.33;;;;;;;0.30;100.00;104125.66;5068263;28;20068;-62
2023/02/06 06:21:56;;;;;;;14.10;2.70;;;;;;;0.31;100.00;104124.84;5069500;28;20544;-61
2023/02/06 06:24:25;;;;;;;13.90;3.13;;;;;;;0.31;100.00;104128.31;5069353;28;20048;-62
2023/02/06 06:26:54;;;;;;;15.65;2.45;;;;;;;0.38;100.00;104129.34;5067450;28;20052;-62
2023/02/06 06:29:22;;;;;;;14.98;2.67;;;;;;;0.31;100.00;104133.50;5050292;28;20098;-61
2023/02/06 06:31:50;;;;;;;12.95;2.67;;;;;;;0.36;100.00;104146.56;5070858;28;20123;-62
2023/02/06 06:34:18;;;;;;;17.17;2.50;;;;;;;0.36;100.00;104146.56;5068021;28;20056;-62
2023/02/06 06:36:47;;;;;;;15.27;3.10;;;;;;;0.35;100.00;104139.63;5072350;28;20101;-62
2023/02/06 06:39:16;;;;;;;21.08;4.00;;;;;;;0.31;100.00;104130.91;5071811;28;20414;-62
2023/02/06 06:41:44;;;;;;;19.33;5.22;;;;;;;0.30;100.00;104133.41;5053412;28;20139;-62
2023/02/06 06:44:12;;;;;;;18.85;4.88;;;;;;;0.29;100.00;104132.56;5072215;28;20387;-62
2023/02/06 06:46:41;;;;;;;17.15;4.07;;;;;;;0.30;100.00;104136.00;5072658;28;20482;-62
2023/02/06 06:49:09;;;;;;;19.30;3.80;;;;;;;0.33;100.00;104131.81;5075244;28;20056;-62
2023/02/06 06:51:40;;;;;;;19.42;4.60;;;;;;;0.36;100.00;104135.34;5075314;28;20066;-62
2023/02/06 06:54:08;;;;;;;15.90;4.00;;;;;;;0.39;100.00;104128.53;5075250;28;20048;-62
2023/02/06 06:56:37;;;;;;;21.05;6.45;;;;;;;0.39;100.00;104117.31;5070829;28;20519;-62
2023/02/06 06:59:06;;;;;;;36.05;8.95;;;;;;;0.41;100.00;104120.81;5072273;28;20049;-52
2023/02/06 07:01:34;;;;;;;21.08;7.50;;;;;;;0.42;100.00;104112.22;5074814;28;20032;-51
2023/02/06 07:04:02;;;;;;;19.45;5.97;;;;;;;0.42;100.00;104105.31;5075104;28;20041;-52
2023/02/06 07:06:30;;;;;;;23.95;6.32;;;;;;;0.46;100.00;104107.19;5075018;28;20059;-49
2023/02/06 07:08:58;;;;;;;17.00;5.60;;;;;;;0.47;100.00;104108.06;5075051;28;20044;-51
2023/02/06 07:11:26;;;;;;;15.82;3.90;;;;;;;0.48;100.00;104110.69;5075100;28;20048;-50
2023/02/06 07:13:55;;;;;;;15.10;3.38;;;;;;;0.52;100.00;104105.59;5057101;28;20098;-49
2023/02/06 07:16:23;;;;;;;19.10;3.35;;;;;;;0.55;100.00;104090.16;5074830;28;20407;-51
2023/02/06 07:18:54;;;;;;;15.25;4.00;;;;;;;0.58;100.00;104090.22;5074807;28;20044;-50
2023/02/06 07:21:22;;;;;;;21.30;4.47;;;;;;;0.62;100.00;104081.72;5074664;28;20655;-50
2023/02/06 07:23:50;;;;;;;22.38;4.05;;;;;;;0.64;100.00;104085.22;5073968;28;20056;-52
2023/02/06 07:26:21;;;;;;;15.55;3.30;;;;;;;0.68;100.00;104081.88;5070468;28;20189;-51
2023/02/06 07:28:51;;;;;;;14.80;2.88;;;;;;;0.72;100.00;104086.31;5072986;28;20056;-51
2023/02/06 07:31:21;;;;;;;17.45;3.40;;;;;;;0.75;100.00;104089.00;5074762;28;20048;-48
2023/02/06 07:33:50;;;;;;;18.17;3.75;;;;;;;0.79;100.00;104093.44;5057118;28;20109;-51
2023/02/06 07:36:18;;;;;;;17.73;3.60;;;;;;;0.83;100.00;104084.91;5074465;28;20059;-50
2023/02/06 07:38:46;;;;;;;15.25;3.58;;;;;;;0.86;100.00;104076.34;5056626;28;20082;-50
2023/02/06 07:41:16;;;;;;;19.25;3.22;;;;;;;0.90;100.00;104082.47;5074607;28;20131;-50
2023/02/06 07:43:44;;;;;;;16.08;3.33;;;;;;;0.92;100.00;104073.91;5074482;28;20058;-53
2023/02/06 07:46:12;;;;;;;19.02;3.58;;;;;;;0.96;100.00;104078.31;5073322;28;20136;-52
2023/02/06 07:48:42;;;;;;;15.05;2.53;;;;;;;1.00;100.00;104076.72;5073461;28;20049;-52
2023/02/06 07:51:14;;;;;;;15.75;3.70;;;;;;;1.03;100.00;104063.81;5073798;28;20127;-52
2023/02/06 07:53:42;;;;;;;17.52;3.47;;;;;;;1.07;100.00;104060.47;5074217;28;20044;-52
2023/02/06 07:56:12;;;;;;;17.98;3.00;;;;;;;1.10;100.00;104055.34;5074335;28;20127;-50
2023/02/06 07:58:40;;;;;;;11.95;2.50;;;;;;;1.13;100.00;104049.38;5071682;28;20055;-50
2023/02/06 08:01:09;;;;;;;16.90;3.17;;;;;;;1.15;100.00;104047.72;5071086;28;20131;-54
2023/02/06 08:03:37;;;;;;;17.08;3.63;;;;;;;1.17;100.00;104048.63;5071453;28;20047;-52
2023/02/06 08:06:11;;;;;;;16.02;2.70;;;;;;;1.21;100.00;104047.00;5074175;28;20531;-53
2023/02/06 08:08:40;;;;;;;12.63;2.60;;;;;;;1.25;100.00;104035.84;5073951;28;20051;-52
2023/02/06 08:11:10;;;;;;;15.45;2.67;;;;;;;1.30;100.00;104032.53;5074058;28;20518;-53
2023/02/06 08:13:38;;;;;;;13.27;2.92;;;;;;;1.32;100.00;104019.59;5052724;28;20067;-54
2023/02/06 08:16:08;;;;;;;16.67;2.70;;;;;;;1.36;100.00;104021.41;5071331;28;20040;-54
2023/02/06 08:18:37;;;;;;;12.85;2.55;;;;;;;1.39;100.00;104018.94;5073942;28;20135;-50
2023/02/06 08:21:13;;;;;;;24.20;3.53;;;;;;;1.43;100.00;104023.34;5073867;28;20044;-52
2023/02/06 08:23:41;;;;;;;16.50;2.60;;;;;;;1.46;100.00;104018.22;5073947;28;20397;-53
2023/02/06 08:26:12;;;;;;;12.15;2.40;;;;;;;1.49;100.00;104013.09;5073158;28;20046;-54
2023/02/06 08:28:40;;;;;;;17.58;3.85;;;;;;;1.52;100.00;104005.38;5069892;28;20045;-49
2023/02/06 08:31:10;;;;;;;18.00;3.67;;;;;;;1.56;100.00;104005.47;5069874;28;20388;-49
2023/02/06 08:33:40;;;;;;;19.73;4.05;;;;;;;1.61;100.00;104001.25;5070223;28;20503;-52
2023/02/06 08:36:09;;;;;;;16.90;3.63;;;;;;;1.64;100.00;104001.34;5072684;28;20487;-51
2023/02/06 08:38:39;;;;;;;15.00;3.20;;;;;;;1.71;100.00;104003.22;5069992;28;20048;-52
2023/02/06 08:41:16;;;;;;;13.57;3.05;;;;;;;1.78;100.00;104002.50;5069287;28;20047;-50
2023/02/06 08:43:44;;;;;;;17.00;3.42;;;;;;;1.82;100.00;104001.72;5071177;28;20049;-53
2023/02/06 08:46:13;;;;;;;21.23;3.75;;;;;;;1.88;100.00;103997.53;5070923;28;20432;-49
2023/02/06 08:48:41;;;;;;;20.05;3.95;;;;;;;1.95;100.00;104007.19;5069901;28;20510;-51
2023/02/06 08:51:10;;;;;;;18.55;3.45;;;;;;;2.00;100.00;104015.97;5069668;28;20043;-50
2023/02/06 08:53:40;;;;;;;11.93;2.47;;;;;;;2.08;100.00;104013.53;5069492;28;20048;-53
2023/02/06 08:56:09;;;;;;;14.02;3.28;;;;;;;2.22;100.00;104026.81;5070663;28;20391;-52
2023/02/06 08:58:38;;;;;;;15.52;2.90;;;;;;;2.25;100.00;104021.66;5072602;28;20522;-52
2023/02/06 09:01:07;;;;;;;23.35;3.92;;;;;;;2.30;100.00;104030.44;5072952;28;20075;-51
2023/02/06 09:03:36;;;;;;;16.88;2.55;;;;;;;2.39;100.00;104030.63;5072844;28;20161;-49
2023/02/06 09:06:05;;;;;;;12.48;2.50;;;;;;;2.46;100.00;104040.28;5069804;28;20036;-49
2023/02/06 09:08:37;;;;;;;14.48;3.22;;;;;;;2.53;100.00;104028.28;5070808;28;20079;-53
2023/02/06 09:11:08;;;;;;;17.55;3.17;;;;;;;2.69;100.00;104048.53;5072726;28;20051;-52
2023/02/06 09:13:37;;;;;;;19.67;4.07;;;;;;;2.79;100.00;104046.97;5072756;28;20140;-51
2023/02/06 09:16:06;;;;;;;15.65;3.15;;;;;;;2.82;100.00;104039.25;5072653;28;20085;-52
2023/02/06 09:18:35;;;;;;;14.55;3.45;;;;;;;2.87;100.00;104042.78;5072609;28;20126;-52
2023/02/06 09:21:05;;;;;;;13.38;2.90;;;;;;;2.96;100.00;104043.81;5072577;28;20140;-53
2023/02/06 09:23:34;;;;;;;12.00;3.15;;;;;;;3.05;100.00;104046.59;5072539;28;20048;-52
2023/02/06 09:26:02;;;;;;;13.13;3.08;;;;;;;3.13;100.00;104058.00;5072515;28;20131;-52
2023/02/06 09:28:32;;;;;;;9.65;2.38;;;;;;;3.22;100.00;104057.28;5072560;28;20081;-50
2023/02/06 09:31:00;;;;;;;20.30;4.38;;;;;;;3.28;100.00;104049.56;5071984;28;20071;-52
2023/02/06 09:33:29;;;;;;;15.60;3.55;;;;;;;3.40;100.00;104053.25;5069022;28;20056;-53
2023/02/06 09:36:05;;;;;;;16.30;3.55;;;;;;;3.51;100.00;104049.94;5070401;28;20106;-50
2023/02/06 09:38:34;;;;;;;14.85;4.20;;;;;;;3.60;100.00;104048.34;5072229;28;20123;-48
2023/02/06 09:41:06;;;;;;;14.20;3.65;;;;;;;3.70;100.00;104045.91;5068382;28;20101;-51
2023/02/06 09:43:36;;;;;;;14.02;2.70;;;;;;;3.81;100.00;104040.00;5069448;28;20093;-50
2023/02/06 09:46:09;;;;;;;24.83;3.97;;;;;;;3.94;100.00;104044.53;5072368;28;20499;-51
2023/02/06 09:48:39;;;;;;;20.05;3.50;;;;;;;4.07;100.00;104048.16;5072522;28;20503;-51
2023/02/06 09:51:14;;;;;;;23.65;3.55;;;;;;;4.18;100.00;104049.16;5072233;28;20041;-50
2023/02/06 09:53:53;;;;;;;19.40;3.45;;;;;;;4.31;100.00;104046.72;5071564;28;20053;-49
2023/02/06 09:56:32;;;;;;;25.17;3.30;;;;;;;4.47;100.00;104046.06;5054063;28;20048;-51
2023/02/06 09:59:10;;;;;;;14.93;3.20;;;;;;;4.60;100.00;104049.69;5072202;28;20373;-51
2023/02/06 10:01:45;;;;;;;16.42;3.38;;;;;;;4.68;100.00;104050.63;5072021;28;20097;-51
2023/02/06 10:04:37;;;;;;;21.65;3.30;;;;;;;4.82;100.00;104053.38;5072105;28;20117;-51
2023/02/06 10:07:27;;;;;;;15.45;4.07;;;;;;;4.95;100.00;104059.63;5072139;28;20135;-49
2023/02/06 10:10:01;;;;;;;15.82;2.60;;;;;;;5.19;100.00;104056.34;5072872;28;20052;-49
2023/02/06 10:12:35;;;;;;;16.55;3.20;;;;;;;5.50;100.00;104061.81;5076113;28;20132;-50
2023/02/06 10:15:13;;;;;;;21.20;3.05;;;;;;;5.72;100.00;104057.63;5076418;28;20549;-52
2023/02/06 10:17:51;;;;;;;19.55;3.15;;;;;;;5.94;100.00;104055.13;5076266;28;20060;-50
2023/02/06 10:20:26;;;;;;;20.02;3.15;;;;;;;6.00;100.00;104054.31;5076024;28;20426;-48
2023/02/06 10:23:08;;;;;;;23.02;2.90;;;;;;;6.23;100.00;104041.38;5075722;28;20048;-50
2023/02/06 10:25:39;;;;;;;18.70;2.95;;;;;;;6.73;100.00;104042.41;5072056;28;20181;-50
2023/02/06 10:28:25;;;;;;;15.02;2.55;;;;;;;6.94;100.00;104037.22;5074256;28;20475;-52
2023/02/06 10:31:28;;;;;;;16.13;2.42;;;;;;;7.14;100.00;104035.47;5075713;28;20048;-51
2023/02/06 10:34:17;;;;;;;22.33;2.45;;;;;;;7.30;100.00;104031.97;5075541;28;20055;-50
2023/02/06 10:37:01;;;;;;;16.45;2.80;;;;;;;7.39;100.00;104034.59;5075738;28;20056;-48
2023/02/06 10:39:52;;;;;;;14.65;2.20;;;;;;;7.93;100.00;104045.00;5075507;28;20586;-49
2023/02/06 10:42:27;;;;;;;17.65;2.78;;;;;;;8.26;100.00;104040.50;5075557;28;20040;-51
2023/02/06 10:45:03;;;;;;;16.60;2.85;;;;;;;8.26;100.00;104032.63;5075547;28;20064;-51
2023/02/06 10:47:53;;;;;;;18.25;2.83;;;;;;;8.37;100.00;104029.94;5072438;28;20060;-51
2023/02/06 10:50:27;;;;;;;19.67;2.42;;;;;;;8.56;100.00;104038.63;5072533;28;20131;-51
2023/02/06 10:52:58;;;;;;;16.77;2.30;;;;;;;8.42;100.00;104029.91;5075508;28;20052;-51
2023/02/06 10:55:30;;;;;;;14.55;2.17;;;;;;;8.34;100.00;104037.81;5075282;28;20045;-52
2023/02/06 10:58:05;;;;;;;18.98;2.70;;;;;;;8.26;100.00;104035.25;5074023;28;20064;-53
2023/02/06 11:00:34;;;;;;;13.60;2.33;;;;;;;8.28;100.00;104036.09;5075360;28;20057;-52
2023/02/06 11:03:14;;;;;;;19.75;2.05;;;;;;;8.75;100.00;104038.50;5074883;28;20050;-47
2023/02/06 11:05:42;;;;;;;16.20;2.38;;;;;;;9.02;100.00;104028.69;5074739;28;20045;-49
2023/02/06 11:08:19;;;;;;;15.90;2.63;;;;;;;9.04;100.00;104034.78;5075600;28;20398;-53
2023/02/06 11:10:47;;;;;;;15.32;2.53;;;;;;;8.82;100.00;104034.06;5074964;28;20045;-52
2023/02/06 11:13:25;;;;;;;15.15;2.35;;;;;;;8.85;100.00;104028.81;5075204;28;20592;-49
2023/02/06 11:16:00;;;;;;;17.33;2.50;;;;;;;8.91;100.00;104040.13;5075015;28;20467;-50
2023/02/06 11:18:33;;;;;;;18.38;3.00;;;;;;;8.87;100.00;104030.53;5075142;28;20051;-50
2023/02/06 11:21:01;;;;;;;;;;;;;;;8.87;100.00;104024.44;5075122;28;20403;-50
2023/02/06 11:23:33;;;;;;;20.77;2.88;;;;;;;8.84;100.00;104016.59;5074845;28;20373;-51
2023/02/06 11:26:09;;;;;;;16.98;2.60;;;;;;;8.76;100.00;104035.00;5074841;28;20071;-52
2023/02/06 11:28:40;;;;;;;21.55;3.15;;;;;;;8.93;100.00;104029.63;5075012;28;20040;-50
2023/02/06 11:31:11;;;;;;;11.45;2.00;;;;;;;8.88;100.00;104026.19;5053974;28;20570;-52
2023/02/06 11:33:49;;;;;;;11.02;2.85;;;;;;;8.86;100.00;104020.06;5071102;28;20041;-51
2023/02/06 11:36:27;;;;;;;16.98;2.13;;;;;;;8.78;100.00;104033.22;5074656;28;20044;-52